createdAt,value
2023-03-24T00:01:53.739Z,94.40
2023-03-24T00:04:21.717Z,94.60
2023-03-24T00:06:49.297Z,95.10
2023-03-24T00:09:16.930Z,94.80
2023-03-24T00:11:43.850Z,94.30
2023-03-24T00:14:14.570Z,94.20
2023-03-24T00:16:42.883Z,94.60
2023-03-24T00:19:10.673Z,94.60
2023-03-24T00:21:37.591Z,94.70
2023-03-24T00:24:07.507Z,94.80
2023-03-24T00:26:37.605Z,94.90
2023-03-24T00:29:05.887Z,95.00
2023-03-24T00:31:32.951Z,95.50
2023-03-24T00:34:02.229Z,95.90
2023-03-24T00:36:29.420Z,95.80
2023-03-24T00:38:57.897Z,95.70
2023-03-24T00:41:27.126Z,95.70
2023-03-24T00:43:58.328Z,95.70
2023-03-24T00:46:29.887Z,95.50
2023-03-24T00:49:07.726Z,95.40
2023-03-24T00:51:40.268Z,95.60
2023-03-24T00:54:10.008Z,95.30
2023-03-24T00:56:40.704Z,94.80
2023-03-24T00:59:10.004Z,94.80
2023-03-24T01:01:38.986Z,94.60
2023-03-24T01:04:06.245Z,94.40
2023-03-24T01:06:36.546Z,94.30
2023-03-24T01:09:05.578Z,94.10
2023-03-24T01:11:38.711Z,93.90
2023-03-24T01:14:06.199Z,93.90
2023-03-24T01:16:33.145Z,93.80
2023-03-24T01:19:00.615Z,93.80
2023-03-24T01:21:27.821Z,93.80
2023-03-24T01:23:54.650Z,93.80
2023-03-24T01:26:21.580Z,93.90
2023-03-24T01:28:48.426Z,94.00
2023-03-24T01:31:15.414Z,94.00
2023-03-24T01:33:42.451Z,94.00
2023-03-24T01:36:09.517Z,93.90
2023-03-24T01:38:36.517Z,93.80
2023-03-24T01:41:05.696Z,93.70
2023-03-24T01:43:34.873Z,93.60
2023-03-24T01:46:08.410Z,93.60
2023-03-24T01:48:50.363Z,93.50
2023-03-24T01:51:28.240Z,93.60
2023-03-24T01:54:05.740Z,93.90
2023-03-24T01:56:36.798Z,94.00
2023-03-24T01:59:13.280Z,93.90
2023-03-24T02:01:40.395Z,93.90
2023-03-24T02:04:08.278Z,93.80
2023-03-24T02:06:41.197Z,93.80
2023-03-24T02:09:09.131Z,93.80
2023-03-24T02:11:37.163Z,94.30
2023-03-24T02:14:05.842Z,93.80
2023-03-24T02:16:49.214Z,93.80
2023-03-24T02:20:11.078Z,93.90
2023-03-24T02:22:49.353Z,93.90
2023-03-24T02:25:36.570Z,93.80
2023-03-24T02:28:16.274Z,93.50
2023-03-24T02:31:01.283Z,93.50
2023-03-24T02:34:25.826Z,93.30
2023-03-24T02:37:27.753Z,93.00
2023-03-24T02:39:57.558Z,93.20
2023-03-24T02:42:29.882Z,93.10
2023-03-24T02:45:02.487Z,93.10
2023-03-24T02:47:44.624Z,93.00
2023-03-24T02:50:30.387Z,93.00
2023-03-24T02:53:22.866Z,92.90
2023-03-24T02:55:54.854Z,92.90
2023-03-24T02:58:52.025Z,92.90
2023-03-24T03:01:37.868Z,93.00
2023-03-24T03:04:50.055Z,93.20
2023-03-24T03:07:21.923Z,93.20
2023-03-24T03:10:02.575Z,93.20
2023-03-24T03:12:34.508Z,93.10
2023-03-24T03:15:30.941Z,93.20
2023-03-24T03:18:17.742Z,93.20
2023-03-24T03:20:53.197Z,93.30
2023-03-24T03:23:24.940Z,93.10
2023-03-24T03:25:57.705Z,93.00
2023-03-24T03:28:30.051Z,92.90
2023-03-24T03:31:14.767Z,92.80
2023-03-24T03:34:09.853Z,92.90
2023-03-24T03:36:47.429Z,92.60
2023-03-24T03:39:24.338Z,92.80
2023-03-24T03:41:51.866Z,92.80
2023-03-24T03:44:18.717Z,92.80
2023-03-24T03:46:45.605Z,92.90
2023-03-24T03:49:12.750Z,92.90
2023-03-24T03:51:39.789Z,93.10
2023-03-24T03:54:11.492Z,93.00
2023-03-24T03:56:38.797Z,93.10
2023-03-24T03:59:06.801Z,93.30
2023-03-24T04:01:37.305Z,93.60
2023-03-24T04:04:59.559Z,93.70
2023-03-24T04:07:35.210Z,93.20
2023-03-24T04:10:39.160Z,93.20
2023-03-24T04:13:39.405Z,93.10
2023-03-24T04:16:18.077Z,93.00
2023-03-24T04:19:29.337Z,93.00
2023-03-24T04:22:27.169Z,93.00
2023-03-24T04:25:15.718Z,92.90
2023-03-24T04:28:14.295Z,93.00
2023-03-24T04:30:43.512Z,93.00
2023-03-24T04:33:25.145Z,93.10
2023-03-24T04:36:22.423Z,93.00
2023-03-24T04:38:53.325Z,93.40
2023-03-24T04:41:22.023Z,93.00
2023-03-24T04:43:49.480Z,92.80
2023-03-24T04:46:18.170Z,92.80
2023-03-24T04:48:48.167Z,92.90
2023-03-24T04:51:19.416Z,92.90
2023-03-24T04:53:46.777Z,93.10
2023-03-24T04:56:25.162Z,92.90
2023-03-24T04:58:51.882Z,92.80
2023-03-24T05:01:21.430Z,92.80
2023-03-24T05:03:49.747Z,92.80
2023-03-24T05:06:17.573Z,92.70
2023-03-24T05:08:44.373Z,92.70
2023-03-24T05:11:11.266Z,92.70
2023-03-24T05:13:38.035Z,92.60
2023-03-24T05:16:05.541Z,92.60
2023-03-24T05:18:32.468Z,92.60
2023-03-24T05:21:00.219Z,92.60
2023-03-24T05:23:27.105Z,92.80
2023-03-24T05:25:53.824Z,92.90
2023-03-24T05:28:20.707Z,93.20
2023-03-24T05:30:48.038Z,93.60
2023-03-24T05:33:14.922Z,94.00
2023-03-24T05:35:41.928Z,94.40
2023-03-24T05:38:08.756Z,95.00
2023-03-24T05:40:37.177Z,95.50
2023-03-24T05:43:04.236Z,95.80
2023-03-24T05:45:31.150Z,96.00
2023-03-24T05:47:57.937Z,96.30
2023-03-24T05:50:24.840Z,96.30
2023-03-24T05:52:52.609Z,96.50
2023-03-24T05:55:19.526Z,96.50
2023-03-24T05:57:46.321Z,96.70
2023-03-24T06:00:17.381Z,96.80
2023-03-24T06:02:45.575Z,97.10
2023-03-24T06:05:13.040Z,97.20
2023-03-24T06:07:42.430Z,97.40
2023-03-24T06:10:11.519Z,97.40
2023-03-24T06:12:39.114Z,97.50
2023-03-24T06:15:06.822Z,97.60
2023-03-24T06:17:34.115Z,97.90
2023-03-24T06:20:11.713Z,98.00
2023-03-24T06:22:38.636Z,98.30
2023-03-24T06:25:05.945Z,98.50
2023-03-24T06:27:32.701Z,98.70
2023-03-24T06:30:00.181Z,99.00
2023-03-24T06:32:27.535Z,99.20
2023-03-24T06:34:54.402Z,99.50
2023-03-24T06:37:24.716Z,99.50
2023-03-24T06:39:52.150Z,99.60
2023-03-24T06:42:19.080Z,99.40
2023-03-24T06:44:45.969Z,99.40
2023-03-24T06:47:12.756Z,99.40
2023-03-24T06:49:39.585Z,99.50
2023-03-24T06:52:06.475Z,99.60
2023-03-24T06:54:33.300Z,99.70
2023-03-24T06:57:00.187Z,99.80
2023-03-24T06:59:28.324Z,99.80
2023-03-24T07:01:55.649Z,99.80
2023-03-24T07:04:25.593Z,99.90
2023-03-24T07:09:23.353Z,99.90
2023-03-24T07:11:50.106Z,99.90
2023-03-24T07:14:16.802Z,99.90
2023-03-24T07:16:43.718Z,99.90
2023-03-24T07:19:10.555Z,99.90
2023-03-24T07:21:37.307Z,99.90
2023-03-24T07:24:04.348Z,99.90
2023-03-24T07:26:31.158Z,99.90
2023-03-24T07:28:58.038Z,99.90
2023-03-24T07:31:24.941Z,99.90
2023-03-24T07:33:51.781Z,99.90
2023-03-24T07:36:18.793Z,99.90
2023-03-24T07:38:45.603Z,99.90
2023-03-24T07:41:12.360Z,99.90
2023-03-24T07:43:39.071Z,99.90
2023-03-24T07:46:07.276Z,99.90
2023-03-24T07:48:35.837Z,99.90
2023-03-24T07:51:02.879Z,99.90
2023-03-24T07:53:29.592Z,99.90
2023-03-24T07:55:56.358Z,99.90
2023-03-24T07:58:23.082Z,99.90
2023-03-24T08:00:50.121Z,99.90
2023-03-24T08:03:17.148Z,99.90
2023-03-24T08:05:44.442Z,99.90
2023-03-24T08:08:11.636Z,99.90
2023-03-24T08:10:38.419Z,99.90
2023-03-24T08:13:05.616Z,99.90
2023-03-24T08:15:32.411Z,99.90
2023-03-24T08:17:59.333Z,99.90
2023-03-24T08:20:27.456Z,99.90
2023-03-24T08:22:54.691Z,99.90
2023-03-24T08:25:24.823Z,99.90
2023-03-24T08:27:52.334Z,99.90
2023-03-24T08:30:21.653Z,99.90
2023-03-24T08:32:51.472Z,99.90
2023-03-24T08:35:20.938Z,99.90
2023-03-24T08:37:47.733Z,99.90
2023-03-24T08:40:19.370Z,99.90
2023-03-24T08:42:54.863Z,99.90
2023-03-24T08:45:23.987Z,99.90
2023-03-24T08:47:52.616Z,99.90
2023-03-24T08:50:21.693Z,99.90
2023-03-24T08:52:48.599Z,99.90
2023-03-24T08:55:17.307Z,99.90
2023-03-24T08:57:44.432Z,99.90
2023-03-24T09:00:15.376Z,99.90
2023-03-24T09:02:45.045Z,99.90
2023-03-24T09:05:12.579Z,99.90
2023-03-24T09:07:39.537Z,99.90
2023-03-24T09:10:07.432Z,99.90
2023-03-24T09:12:35.256Z,99.90
2023-03-24T09:15:02.248Z,99.90
2023-03-24T09:17:29.094Z,99.90
2023-03-24T09:19:56.478Z,99.90
2023-03-24T09:22:23.306Z,99.90
2023-03-24T09:24:50.400Z,99.90
2023-03-24T09:27:17.700Z,99.90
2023-03-24T09:29:45.015Z,99.90
2023-03-24T09:32:11.710Z,99.90
2023-03-24T09:34:38.603Z,99.90
2023-03-24T09:37:06.362Z,99.90
2023-03-24T09:39:36.609Z,99.90
2023-03-24T09:42:08.295Z,99.90
2023-03-24T09:44:50.216Z,99.90
2023-03-24T09:47:34.106Z,99.90
2023-03-24T09:50:07.276Z,99.90
2023-03-24T09:52:38.205Z,99.90
2023-03-24T09:55:05.695Z,99.90
2023-03-24T09:57:38.956Z,99.90
2023-03-24T10:00:16.158Z,99.90
2023-03-24T10:02:43.137Z,99.90
2023-03-24T10:05:15.505Z,99.90
2023-03-24T10:07:45.110Z,99.90
2023-03-24T10:10:36.722Z,99.90
2023-03-24T10:13:08.032Z,99.90
2023-03-24T10:15:44.851Z,99.90
2023-03-24T10:18:24.020Z,99.90
2023-03-24T10:21:21.023Z,99.90
2023-03-24T10:24:14.820Z,99.90
2023-03-24T10:26:56.400Z,99.90
2023-03-24T10:29:32.935Z,99.90
2023-03-24T10:32:05.036Z,99.90
2023-03-24T10:34:33.705Z,99.90
2023-03-24T10:37:03.010Z,99.90
2023-03-24T10:39:41.980Z,99.90
2023-03-24T10:42:21.716Z,99.90
2023-03-24T10:44:51.084Z,99.90
2023-03-24T10:47:24.250Z,99.90
2023-03-24T10:50:12.336Z,99.90
2023-03-24T10:52:48.713Z,99.90
2023-03-24T10:55:23.339Z,99.90
2023-03-24T10:57:59.095Z,99.90
2023-03-24T11:00:29.892Z,99.90
2023-03-24T11:03:00.381Z,99.90
2023-03-24T11:05:33.793Z,99.90
2023-03-24T11:08:32.730Z,99.90
2023-03-24T11:11:00.241Z,99.90
2023-03-24T11:13:33.443Z,99.90
2023-03-24T11:16:15.137Z,99.90
2023-03-24T11:18:58.405Z,99.90
2023-03-24T11:21:27.797Z,99.90
2023-03-24T11:23:58.933Z,99.90
2023-03-24T11:26:35.792Z,99.90
2023-03-24T11:29:09.829Z,99.90
2023-03-24T11:31:39.230Z,99.90
2023-03-24T11:34:20.781Z,99.90
2023-03-24T11:36:55.001Z,99.90
2023-03-24T11:39:34.227Z,99.90
2023-03-24T11:42:17.123Z,99.90
2023-03-24T11:44:46.759Z,99.90
2023-03-24T11:47:28.993Z,99.50
2023-03-24T11:50:04.722Z,99.60
2023-03-24T11:52:49.425Z,99.90
2023-03-24T11:55:32.771Z,99.50
2023-03-24T11:58:44.312Z,99.00
2023-03-24T12:01:20.664Z,98.60
2023-03-24T12:04:08.170Z,98.40
2023-03-24T12:06:40.888Z,98.60
2023-03-24T12:09:33.302Z,98.50
2023-03-24T12:12:21.770Z,98.40
2023-03-24T12:15:06.498Z,98.20
2023-03-24T12:17:46.185Z,97.80
2023-03-24T12:20:33.993Z,97.90
2023-03-24T12:23:14.806Z,97.80
2023-03-24T12:25:59.689Z,97.90
2023-03-24T12:28:32.388Z,98.10
2023-03-24T12:30:59.506Z,97.30
2023-03-24T12:33:29.479Z,97.50
2023-03-24T12:36:33.101Z,97.50
2023-03-24T12:39:10.582Z,97.60
2023-03-24T12:41:52.980Z,97.00
2023-03-24T12:44:22.613Z,97.30
2023-03-24T12:47:01.706Z,97.10
2023-03-24T12:49:34.538Z,96.40
2023-03-24T12:52:07.347Z,96.30
2023-03-24T12:55:06.477Z,96.60
2023-03-24T12:57:59.401Z,96.70
2023-03-24T13:00:30.975Z,96.90
2023-03-24T13:03:28.717Z,97.00
2023-03-24T13:06:07.270Z,97.20
2023-03-24T13:08:45.191Z,97.10
2023-03-24T13:11:30.044Z,97.30
2023-03-24T13:14:03.102Z,97.20
2023-03-24T13:16:34.634Z,97.30
2023-03-24T13:19:03.276Z,97.20
2023-03-24T13:21:33.507Z,97.10
2023-03-24T13:24:14.485Z,97.10
2023-03-24T13:27:06.527Z,97.20
2023-03-24T13:29:49.627Z,97.30
2023-03-24T13:32:25.504Z,97.10
2023-03-24T13:34:55.874Z,96.80
2023-03-24T13:37:32.363Z,96.90
2023-03-24T13:40:01.365Z,97.10
2023-03-24T13:42:43.558Z,97.50
2023-03-24T13:45:35.332Z,98.60
2023-03-24T13:48:30.447Z,99.60
2023-03-24T13:51:31.464Z,99.90
2023-03-24T13:54:03.374Z,99.90
2023-03-24T13:57:06.333Z,99.90
2023-03-24T14:00:12.079Z,99.90
2023-03-24T14:02:49.740Z,99.90
2023-03-24T14:05:23.021Z,99.90
2023-03-24T14:07:52.018Z,99.90
2023-03-24T14:10:20.787Z,99.90
2023-03-24T14:13:19.465Z,99.90
2023-03-24T14:15:49.161Z,99.90
2023-03-24T14:18:16.410Z,99.90
2023-03-24T14:20:58.232Z,99.90
2023-03-24T14:23:48.262Z,99.90
2023-03-24T14:26:20.993Z,99.90
2023-03-24T14:28:52.858Z,99.90
2023-03-24T14:31:31.089Z,99.90
2023-03-24T14:34:02.437Z,99.90
2023-03-24T14:36:32.858Z,99.90
2023-03-24T14:39:49.765Z,99.90
2023-03-24T14:42:34.557Z,99.90
2023-03-24T14:45:04.259Z,99.90
2023-03-24T14:47:34.554Z,99.90
2023-03-24T14:50:12.151Z,99.90
2023-03-24T14:52:47.833Z,99.90
2023-03-24T14:55:18.855Z,99.90
2023-03-24T14:57:53.433Z,99.90
2023-03-24T15:00:51.869Z,99.90
2023-03-24T15:03:56.008Z,99.90
2023-03-24T15:06:23.959Z,99.90
2023-03-24T15:08:52.780Z,99.90
2023-03-24T15:11:25.975Z,99.90
2023-03-24T15:13:54.816Z,99.90
2023-03-24T15:16:26.828Z,99.90
2023-03-24T15:19:05.044Z,99.90
2023-03-24T15:22:11.647Z,99.90
2023-03-24T15:24:41.539Z,99.90
2023-03-24T15:27:08.361Z,99.90
2023-03-24T15:29:37.954Z,99.90
2023-03-24T15:32:06.577Z,99.90
2023-03-24T15:34:40.952Z,99.90
2023-03-24T15:37:31.881Z,99.90
2023-03-24T15:40:09.001Z,99.90
2023-03-24T15:42:43.969Z,99.90
2023-03-24T15:45:28.324Z,99.90
2023-03-24T15:47:55.738Z,99.90
2023-03-24T15:50:36.089Z,99.90
2023-03-24T15:53:06.550Z,99.90
2023-03-24T15:55:36.642Z,99.90
2023-03-24T15:58:28.722Z,99.90
2023-03-24T16:01:02.366Z,99.90
2023-03-24T16:03:32.387Z,99.90
2023-03-24T16:05:59.257Z,99.90
2023-03-24T16:08:39.204Z,99.90
2023-03-24T16:11:11.992Z,99.90
2023-03-24T16:13:41.622Z,99.90
2023-03-24T16:16:14.433Z,99.90
2023-03-24T16:18:46.251Z,99.90
2023-03-24T16:21:19.599Z,99.90
2023-03-24T16:23:47.480Z,99.90
2023-03-24T16:26:22.788Z,99.90
2023-03-24T16:28:50.566Z,99.90
2023-03-24T16:31:21.750Z,99.90
2023-03-24T16:33:49.205Z,99.90
2023-03-24T16:36:17.251Z,99.90
2023-03-24T16:38:45.372Z,99.90
2023-03-24T16:41:15.434Z,99.90
2023-03-24T16:43:42.881Z,99.90
2023-03-24T16:46:20.825Z,99.90
2023-03-24T16:48:47.678Z,99.90
2023-03-24T16:51:15.922Z,99.90
2023-03-24T16:53:43.977Z,99.90
2023-03-24T16:56:13.595Z,99.90
2023-03-24T16:58:40.480Z,99.90
2023-03-24T17:01:27.604Z,99.90
2023-03-24T17:03:55.866Z,99.90
2023-03-24T17:06:24.132Z,99.90
2023-03-24T17:08:51.376Z,99.90
2023-03-24T17:11:25.958Z,99.90
2023-03-24T17:13:54.366Z,99.90
2023-03-24T17:16:22.761Z,99.90
2023-03-24T17:18:49.585Z,99.90
2023-03-24T17:21:17.975Z,99.90
2023-03-24T17:23:46.921Z,99.90
2023-03-24T17:26:13.726Z,99.90
2023-03-24T17:28:40.661Z,99.90
2023-03-24T17:31:07.425Z,99.90
2023-03-24T17:33:34.588Z,99.90
2023-03-24T17:36:01.452Z,99.90
2023-03-24T17:38:28.357Z,99.90
2023-03-24T17:41:02.346Z,99.90
2023-03-24T17:43:29.285Z,99.90
2023-03-24T17:46:00.495Z,99.90
2023-03-24T17:48:28.026Z,99.90
2023-03-24T17:50:56.740Z,99.90
2023-03-24T17:53:27.851Z,99.90
2023-03-24T17:55:57.432Z,99.90
2023-03-24T17:58:26.681Z,99.90
2023-03-24T18:00:54.247Z,99.90
2023-03-24T18:03:21.809Z,99.90
2023-03-24T18:05:49.982Z,99.90
2023-03-24T18:08:16.998Z,99.90
2023-03-24T18:10:43.965Z,99.90
2023-03-24T18:13:11.230Z,99.90
2023-03-24T18:15:41.840Z,99.90
2023-03-24T18:18:09.403Z,99.90
2023-03-24T18:20:36.836Z,99.90
2023-03-24T18:23:04.398Z,99.90
2023-03-24T18:25:32.123Z,99.90
2023-03-24T18:27:58.977Z,99.90
2023-03-24T18:30:26.050Z,99.90
2023-03-24T18:32:52.877Z,99.90
2023-03-24T18:35:20.453Z,99.90
2023-03-24T18:37:47.307Z,99.90
2023-03-24T18:40:15.636Z,99.90
2023-03-24T18:42:42.594Z,99.90
2023-03-24T18:45:10.858Z,99.90
2023-03-24T18:47:37.809Z,99.90
2023-03-24T18:50:05.080Z,99.90
2023-03-24T18:52:33.153Z,99.90
2023-03-24T18:55:02.353Z,99.90
2023-03-24T18:57:29.524Z,99.90
2023-03-24T18:59:56.212Z,99.90
2023-03-24T19:02:23.047Z,99.90
2023-03-24T19:04:49.887Z,99.90
2023-03-24T19:07:24.250Z,99.90
2023-03-24T19:09:51.839Z,99.90
2023-03-24T19:12:18.913Z,99.90
2023-03-24T19:14:46.333Z,99.90
2023-03-24T19:17:13.248Z,99.90
2023-03-24T19:19:41.962Z,99.90
2023-03-24T19:22:08.867Z,99.90
2023-03-24T19:24:36.285Z,99.90
2023-03-24T19:27:04.127Z,99.90
2023-03-24T19:29:31.065Z,99.90
2023-03-24T19:31:57.896Z,99.90
2023-03-24T19:34:24.980Z,99.90
2023-03-24T19:36:51.983Z,99.90
2023-03-24T19:39:19.335Z,99.90
2023-03-24T19:41:46.330Z,99.90
2023-03-24T19:44:13.228Z,99.90
2023-03-24T19:46:40.029Z,99.90
2023-03-24T19:49:06.968Z,99.90
2023-03-24T19:51:33.746Z,99.90
2023-03-24T19:54:00.722Z,99.90
2023-03-24T19:56:28.992Z,99.90
2023-03-24T19:58:56.212Z,99.90
2023-03-24T20:01:23.857Z,99.90
2023-03-24T20:03:51.494Z,99.90
2023-03-24T20:06:19.778Z,99.90
2023-03-24T20:08:46.812Z,99.90
2023-03-24T20:11:13.748Z,99.90
2023-03-24T20:13:40.746Z,99.90
2023-03-24T20:16:07.733Z,99.90
2023-03-24T20:18:35.804Z,99.90
2023-03-24T20:21:03.456Z,99.90
2023-03-24T20:23:31.533Z,99.90
2023-03-24T20:26:00.024Z,99.90
2023-03-24T20:28:28.226Z,99.90
2023-03-24T20:31:02.632Z,99.90
2023-03-24T20:33:30.142Z,99.90
2023-03-24T20:35:57.864Z,99.90
2023-03-24T20:38:25.289Z,99.90
2023-03-24T20:41:03.396Z,99.90
2023-03-24T20:43:30.456Z,99.90
2023-03-24T20:45:58.011Z,99.90
2023-03-24T20:48:25.280Z,99.90
2023-03-24T20:50:53.575Z,99.90
2023-03-24T20:53:20.675Z,99.90
2023-03-24T20:56:08.334Z,99.90
2023-03-24T20:58:36.527Z,99.90
2023-03-24T21:01:09.671Z,99.90
2023-03-24T21:03:36.697Z,99.90
2023-03-24T21:06:04.751Z,99.90
2023-03-24T21:08:31.523Z,99.90
2023-03-24T21:10:58.936Z,99.90
2023-03-24T21:15:55.477Z,99.90
2023-03-24T21:18:22.356Z,99.90
2023-03-24T21:20:56.291Z,99.90
2023-03-24T21:23:23.979Z,99.90
2023-03-24T21:25:51.972Z,99.90
2023-03-24T21:28:19.346Z,99.90
2023-03-24T21:30:46.709Z,99.90
2023-03-24T21:33:14.909Z,99.90
2023-03-24T21:35:41.854Z,99.90
2023-03-24T21:38:09.682Z,99.90
2023-03-24T21:40:37.358Z,99.90
2023-03-24T21:43:04.701Z,99.90
2023-03-24T21:45:32.960Z,99.90
2023-03-24T21:48:00.122Z,99.90
2023-03-24T21:50:29.045Z,99.90
2023-03-24T21:52:55.862Z,99.90
2023-03-24T21:55:23.297Z,99.90
2023-03-24T21:57:51.041Z,99.90
2023-03-24T22:00:20.552Z,99.90
2023-03-24T22:02:50.403Z,99.90
2023-03-24T22:05:29.099Z,99.90
2023-03-24T22:07:56.114Z,99.90
2023-03-24T22:10:23.162Z,99.90
2023-03-24T22:12:51.570Z,99.90
2023-03-24T22:15:18.881Z,99.90
2023-03-24T22:17:45.734Z,99.90
2023-03-24T22:20:13.609Z,99.90
2023-03-24T22:22:41.469Z,99.90
2023-03-24T22:25:11.068Z,99.90
2023-03-24T22:27:41.364Z,99.90
2023-03-24T22:30:10.781Z,99.90
2023-03-24T22:32:37.976Z,99.90
2023-03-24T22:35:05.690Z,99.90
2023-03-24T22:37:33.071Z,99.90
2023-03-24T22:40:00.025Z,99.90
2023-03-24T22:42:26.753Z,99.90
2023-03-24T22:44:53.476Z,99.90
2023-03-24T22:47:20.313Z,99.90
2023-03-24T22:49:47.929Z,99.90
2023-03-24T22:52:14.726Z,99.90
2023-03-24T22:54:41.569Z,99.90
2023-03-24T22:57:08.327Z,99.90
2023-03-24T22:59:35.682Z,99.90
2023-03-24T23:02:10.074Z,99.90
2023-03-24T23:04:37.471Z,99.90
2023-03-24T23:07:06.263Z,99.90
2023-03-24T23:09:33.359Z,99.90
2023-03-24T23:12:00.232Z,99.90
2023-03-24T23:14:27.761Z,99.90
2023-03-24T23:16:56.558Z,99.90
2023-03-24T23:19:23.806Z,99.90
2023-03-24T23:21:50.660Z,99.90
2023-03-24T23:24:18.302Z,99.90
2023-03-24T23:26:45.190Z,99.90
2023-03-24T23:29:13.933Z,99.90
2023-03-24T23:31:41.244Z,99.90
2023-03-24T23:34:11.556Z,99.90
2023-03-24T23:36:45.026Z,99.90
2023-03-24T23:39:13.064Z,99.90
2023-03-24T23:41:40.536Z,99.90
2023-03-24T23:44:09.105Z,99.90
2023-03-24T23:46:36.337Z,99.90
2023-03-24T23:49:03.111Z,99.90
2023-03-24T23:51:29.966Z,99.90
2023-03-24T23:53:56.817Z,99.90
2023-03-24T23:56:23.655Z,99.90
2023-03-24T23:58:50.474Z,99.90
